Cowdrey, Colorado
Current Conditions -  °F | °C
As of 3:15 PM on Monday 22 Dec 2014 (Local Time) from K33V Reporting Station
Overcast Overcast  
Wind Chill:   Ceiling: 7000
Heat Index: 21°   Visibility: 10mi
Dew Point: 14°   Wind: 14mph
Humidity: 74%   Direction: 310°NW
Pressure: 29.72"   Gusts: NA
Location:  40.86°N, 106.31°W
Report Text: K33V 222215Z AUTO 31012KT 10SM BKN070 BKN085 OVC120 M06/M10 A2972 RMK AO2
Loading
Personal Weather Stations






























Interactive Weather Map New forecast layout! Learn more

10-Day Weather Forecast

Advertisements
Track Severe Weather on mobile